Pawleys Island, South Carolina
Current Conditions -  °F | °C
As of 3:15 PM on Thursday 18 Dec 2014 (Local Time) from KGGE Reporting Station
Clear Clear  
Wind Chill: 55°   Ceiling: Unl
Heat Index: 55°   Visibility: 10mi
Dew Point: 41°   Wind: 7mph
Humidity: 58%   Direction: 100°E
Pressure: 30.1"   Gusts: NA
Location:  33.43°N, 79.12°W
Report Text: KGGE 182015Z AUTO 10006KT 10SM CLR 13/05 A3010 RMK AO2
Loading
Personal Weather Stations






























Interactive Weather Map New forecast layout! Learn more

10-Day Weather Forecast

Advertisements
Track Severe Weather on mobile